Terminal Aerodrome Forecast
Issued by NWS

Home | Current Version | Previous Version | Text Only | Print | Product List | Glossary On
Versions: 1 2 3 4 5 6 7 8 9 10 11 12 13 14
000
FTAK31 PAFA 241735
TAFAUN
TAF
PAUN 241735Z 2418/2518 09009KT P6SM BKN080
     FM242100 07011KT P6SM VCSH OVC080
     FM250600 10009KT P6SM SCT080=

USA.gov is the U.S. government's official web portal to all federal, state and local government web resources and services.